createdAt,value
2018-07-22T00:00:27.466Z,55.10
2018-07-22T00:02:57.042Z,57.30
2018-07-22T00:05:25.886Z,55.63
2018-07-22T00:07:54.786Z,56.40
2018-07-22T00:10:27.307Z,57.10
2018-07-22T00:12:56.042Z,56.60
2018-07-22T00:15:24.840Z,53.13
2018-07-22T00:17:53.413Z,51.63
2018-07-22T00:20:22.169Z,53.27
2018-07-22T00:22:50.977Z,53.50
2018-07-22T00:25:19.851Z,49.93
2018-07-22T00:27:49.243Z,56.57
2018-07-22T00:30:18.013Z,49.57
2018-07-22T00:32:46.673Z,52.67
2018-07-22T00:35:15.594Z,51.07
2018-07-22T00:37:44.156Z,48.77
2018-07-22T00:40:12.997Z,49.13
2018-07-22T00:42:41.544Z,48.00
2018-07-22T00:45:12.041Z,48.20
2018-07-22T00:47:41.044Z,46.43
2018-07-22T00:50:09.760Z,50.50
2018-07-22T00:52:39.111Z,48.07
2018-07-22T00:55:07.921Z,47.87
2018-07-22T00:57:37.543Z,47.80
2018-07-22T01:00:06.288Z,48.73
2018-07-22T01:02:34.808Z,47.57
2018-07-22T01:05:03.403Z,44.23
2018-07-22T01:07:34.385Z,40.43
2018-07-22T01:10:02.908Z,42.77
2018-07-22T01:12:31.650Z,38.63
2018-07-22T01:15:00.329Z,38.33
2018-07-22T01:17:29.113Z,32.13
2018-07-22T01:19:57.791Z,31.30
2018-07-22T01:22:26.456Z,32.83
2018-07-22T01:24:54.899Z,33.80
2018-07-22T01:27:24.313Z,32.87
2018-07-22T01:29:52.971Z,31.97
2018-07-22T01:32:21.676Z,34.80
2018-07-22T01:34:50.997Z,34.00
2018-07-22T01:37:19.618Z,33.50
2018-07-22T01:39:48.350Z,32.80
2018-07-22T01:42:16.876Z,33.37
2018-07-22T01:44:45.616Z,34.03
2018-07-22T01:47:14.238Z,32.23
2018-07-22T01:49:42.566Z,33.50
2018-07-22T01:52:11.044Z,33.57
2018-07-22T01:54:39.582Z,33.60
2018-07-22T01:57:08.685Z,32.57
2018-07-22T01:59:37.428Z,34.90
2018-07-22T02:02:06.249Z,33.33
2018-07-22T02:04:42.724Z,35.37
2018-07-22T02:07:11.373Z,33.43
2018-07-22T02:09:40.173Z,32.83
2018-07-22T02:12:08.820Z,33.83
2018-07-22T02:14:37.306Z,33.80
2018-07-22T02:17:05.887Z,33.63
2018-07-22T02:19:34.468Z,32.73
2018-07-22T02:22:03.052Z,31.00
2018-07-22T02:24:31.533Z,31.77
2018-07-22T02:27:00.198Z,31.70
2018-07-22T02:29:29.011Z,31.70
2018-07-22T02:31:57.516Z,30.80
2018-07-22T02:34:26.198Z,30.10
2018-07-22T02:45:22.158Z,32.67
2018-07-22T02:47:50.901Z,33.40
2018-07-22T02:50:19.544Z,35.47
2018-07-22T02:52:48.482Z,34.00
2018-07-22T02:55:17.124Z,34.43
2018-07-22T02:57:45.619Z,33.90
2018-07-22T03:00:14.065Z,30.90
2018-07-22T03:02:42.786Z,29.87
2018-07-22T03:05:11.456Z,32.57
2018-07-22T03:07:40.287Z,29.30
2018-07-22T03:10:09.305Z,33.07
2018-07-22T03:12:38.765Z,31.07
2018-07-22T03:15:07.795Z,35.33
2018-07-22T03:17:36.272Z,33.83
2018-07-22T03:20:05.129Z,33.50
2018-07-22T03:22:34.909Z,34.47
2018-07-22T03:25:03.374Z,34.67
2018-07-22T03:27:32.022Z,35.13
2018-07-22T03:30:00.654Z,37.40
2018-07-22T03:32:29.613Z,36.80
2018-07-22T03:34:58.175Z,36.50
2018-07-22T03:37:27.051Z,34.93
2018-07-22T03:39:55.608Z,34.53
2018-07-22T03:42:24.454Z,35.03
2018-07-22T03:44:53.317Z,36.93
2018-07-22T03:47:22.081Z,35.27
2018-07-22T03:49:50.683Z,31.97
2018-07-22T03:52:19.367Z,34.20
2018-07-22T03:54:47.970Z,33.10
2018-07-22T03:57:16.540Z,34.27
2018-07-22T03:59:45.063Z,36.17
2018-07-22T04:02:13.652Z,35.73
2018-07-22T04:04:42.254Z,33.73
2018-07-22T04:07:11.220Z,34.10
2018-07-22T04:09:40.550Z,35.53
2018-07-22T04:12:09.144Z,34.83
2018-07-22T04:14:37.754Z,32.80
2018-07-22T04:17:06.882Z,33.07
2018-07-22T04:19:35.508Z,34.20
2018-07-22T04:22:04.179Z,34.07
2018-07-22T04:24:41.541Z,32.47
2018-07-22T04:29:21.870Z,33.53
2018-07-22T04:31:50.546Z,34.17
2018-07-22T04:34:19.203Z,34.40
2018-07-22T04:36:47.762Z,35.13
2018-07-22T04:39:16.532Z,34.30
2018-07-22T04:41:49.204Z,32.43
2018-07-22T04:44:19.105Z,33.50
2018-07-22T04:46:47.632Z,34.17
2018-07-22T04:49:16.423Z,33.40
2018-07-22T04:51:44.927Z,31.67
2018-07-22T04:54:13.975Z,31.83
2018-07-22T04:56:42.669Z,30.83
2018-07-22T04:59:11.395Z,29.83
2018-07-22T05:01:39.987Z,30.90
2018-07-22T05:04:09.673Z,30.00
2018-07-22T05:06:38.330Z,29.47
2018-07-22T05:09:08.128Z,31.10
2018-07-22T05:11:44.479Z,28.07
2018-07-22T05:14:24.120Z,27.77
2018-07-22T05:16:55.016Z,26.80
2018-07-22T05:22:16.404Z,28.03
2018-07-22T05:24:45.403Z,25.87
2018-07-22T05:27:14.976Z,26.90
2018-07-22T05:29:44.226Z,25.83
2018-07-22T05:32:12.924Z,24.63
2018-07-22T05:35:26.903Z,24.97
2018-07-22T05:38:01.965Z,25.93
2018-07-22T05:40:34.425Z,24.40
2018-07-22T05:53:28.792Z,24.47
2018-07-22T06:05:58.752Z,24.00
2018-07-22T06:29:51.536Z,22.33
2018-07-22T09:52:29.386Z,5.33
2018-07-22T10:25:29.669Z,7.73
2018-07-22T10:35:39.091Z,5.40
2018-07-22T12:25:18.310Z,5.85
2018-07-22T12:29:53.879Z,6.60
2018-07-22T12:32:25.478Z,5.90
2018-07-22T12:34:57.735Z,5.87
2018-07-22T13:58:03.248Z,5.90
2018-07-22T14:00:34.343Z,8.53
2018-07-22T18:25:24.608Z,6.23
2018-07-22T19:04:19.690Z,6.67
2018-07-22T20:02:40.746Z,8.30
2018-07-22T20:07:57.750Z,9.00
2018-07-22T20:10:27.454Z,9.60
2018-07-22T20:12:56.001Z,8.53
2018-07-22T20:33:36.491Z,9.13
2018-07-22T20:36:05.100Z,10.13
2018-07-22T20:38:33.898Z,9.67
2018-07-22T20:41:02.654Z,9.30
2018-07-22T20:43:32.667Z,9.57
2018-07-22T20:46:01.264Z,9.77
2018-07-22T20:48:30.458Z,10.10
2018-07-22T20:50:59.268Z,10.03
2018-07-22T20:53:27.595Z,9.90
2018-07-22T20:55:56.644Z,10.30
2018-07-22T20:58:26.332Z,10.20
2018-07-22T21:00:55.200Z,9.87
2018-07-22T21:03:24.158Z,10.73
2018-07-22T21:05:55.951Z,10.23
2018-07-22T21:08:26.087Z,11.03
2018-07-22T21:10:55.351Z,11.50
2018-07-22T21:13:26.087Z,10.97
2018-07-22T21:15:55.050Z,10.40
2018-07-22T21:18:24.249Z,10.37
2018-07-22T21:20:52.535Z,10.27
2018-07-22T21:39:21.793Z,8.30
2018-07-22T22:32:30.207Z,9.00
2018-07-22T22:35:29.428Z,9.03
2018-07-22T22:38:11.912Z,9.07
2018-07-22T22:41:44.496Z,9.37
2018-07-22T22:44:32.333Z,9.43
2018-07-22T22:56:35.177Z,9.37
2018-07-22T22:59:09.594Z,9.13
2018-07-22T23:01:39.993Z,9.83
2018-07-22T23:09:57.462Z,9.90
2018-07-22T23:12:37.069Z,9.53
2018-07-22T23:15:12.467Z,9.90
